Time;durP1;ratioP1;P1;durP2;ratioP2;P2;SDS_P1;SDS_P2;PMS_P1;PMS_P2;Temp;Humidity;BMP_temperature;BMP_pressure;BME280_temperature;BME280_humidity;BME280_pressure;Samples;Min_cycle;Max_cycle;Signal;HPM_P1;HPM_P2
2022/01/15 00:01:10;;;;;;;26.90;7.10;;;;;;;0.82;81.11;100829.82;130099;1269;107582;-75
2022/01/15 00:04:16;;;;;;;27.50;6.30;;;;;;;0.82;81.10;100831.59;130244;1271;108739;-75
2022/01/15 00:07:21;;;;;;;21.80;5.30;;;;;;;0.78;81.03;100829.31;130218;1271;108805;-76
2022/01/15 00:10:28;;;;;;;27.40;7.20;;;;;;;0.74;81.04;100833.70;130122;1271;106988;-76
2022/01/15 00:13:34;;;;;;;20.90;4.70;;;;;;;0.70;81.06;100826.92;130019;1270;108863;-74
2022/01/15 00:16:46;;;;;;;21.60;4.90;;;;;;;0.67;81.12;100834.04;130051;1270;108739;-76
2022/01/15 00:19:52;;;;;;;21.30;5.40;;;;;;;0.66;81.29;100829.90;130106;1269;108599;-76
2022/01/15 00:22:59;;;;;;;20.80;6.10;;;;;;;0.66;81.33;100836.40;130098;1271;108633;-73
2022/01/15 00:26:05;;;;;;;18.00;4.90;;;;;;;0.66;81.09;100833.58;130169;1271;107733;-74
2022/01/15 00:29:10;;;;;;;29.30;7.30;;;;;;;0.65;81.20;100835.05;130272;1270;108648;-74
2022/01/15 00:32:16;;;;;;;20.70;5.20;;;;;;;0.63;81.18;100835.67;130211;1270;108852;-76
2022/01/15 00:35:23;;;;;;;22.30;5.50;;;;;;;0.61;81.14;100829.43;130237;1271;108717;-76
2022/01/15 00:38:29;;;;;;;24.00;5.60;;;;;;;0.63;81.36;100831.09;130152;1269;109370;-76
2022/01/15 00:41:34;;;;;;;21.80;6.00;;;;;;;0.62;81.37;100842.54;130163;1271;108653;-75
2022/01/15 00:44:41;;;;;;;20.10;4.90;;;;;;;0.61;81.18;100844.84;130105;1270;107735;-76
2022/01/15 00:47:47;;;;;;;24.90;6.50;;;;;;;0.57;81.29;100846.77;129921;1270;109779;-75
2022/01/15 00:50:53;;;;;;;20.60;6.60;;;;;;;0.54;81.47;100848.88;130216;1271;108889;-76
2022/01/15 00:53:58;;;;;;;16.40;3.90;;;;;;;0.54;81.33;100853.94;130086;1271;108770;-76
2022/01/15 00:57:04;;;;;;;17.80;4.10;;;;;;;0.56;81.37;100853.13;130066;1271;108756;-76
2022/01/15 01:00:14;;;;;;;23.90;5.60;;;;;;;0.58;81.31;100854.24;130269;1270;107287;-76
2022/01/15 01:03:20;;;;;;;16.70;5.30;;;;;;;0.53;81.44;100849.61;130158;1271;108820;-76
2022/01/15 01:06:25;;;;;;;18.90;5.80;;;;;;;0.47;81.37;100852.71;130267;1271;107697;-75
2022/01/15 01:09:45;;;;;;;20.70;5.10;;;;;;;0.45;81.44;100853.52;130064;1271;108968;-75
2022/01/15 01:13:14;;;;;;;16.40;4.30;;;;;;;0.40;81.39;100855.50;130118;1270;107435;-76
2022/01/15 01:23:05;;;;;;;15.20;4.10;;;;;;;0.45;81.35;100849.98;130255;1269;108882;-74
2022/01/15 01:26:23;;;;;;;17.10;4.90;;;;;;;0.42;81.51;100853.48;130163;1269;108885;-74
2022/01/15 01:29:37;;;;;;;12.50;4.10;;;;;;;0.39;81.39;100855.85;130061;1270;106933;-75
2022/01/15 01:32:52;;;;;;;15.30;4.60;;;;;;;0.36;81.46;100853.91;129899;1270;107179;-74
2022/01/15 01:36:13;;;;;;;14.20;4.20;;;;;;;0.34;81.84;100862.77;130300;1270;108603;-74
2022/01/15 01:39:19;;;;;;;17.00;4.70;;;;;;;0.35;81.54;100855.55;130306;1271;107625;-72
2022/01/15 01:42:40;;;;;;;14.20;3.90;;;;;;;0.39;81.50;100854.98;130126;1270;109726;-74
2022/01/15 01:45:51;;;;;;;15.50;4.50;;;;;;;0.41;81.51;100851.06;130221;1271;107609;-73
2022/01/15 01:48:59;;;;;;;17.50;4.20;;;;;;;0.37;81.48;100849.11;130176;1270;108605;-75
2022/01/15 01:52:06;;;;;;;18.80;3.80;;;;;;;0.34;81.56;100842.27;130194;1270;107322;-75
2022/01/15 01:55:13;;;;;;;16.60;4.30;;;;;;;0.33;81.57;100841.28;130104;1270;108820;-75
2022/01/15 01:58:18;;;;;;;13.00;3.50;;;;;;;0.30;81.66;100844.09;130066;1270;107426;-76
2022/01/15 02:01:24;;;;;;;13.80;3.60;;;;;;;0.30;81.63;100847.90;130160;1270;108886;-74
2022/01/15 02:04:30;;;;;;;16.20;4.30;;;;;;;0.31;81.61;100844.85;130104;1271;108924;-73
2022/01/15 02:07:36;;;;;;;17.40;4.60;;;;;;;0.36;81.60;100844.11;130185;1269;108742;-74
2022/01/15 02:10:43;;;;;;;15.10;4.20;;;;;;;0.37;81.53;100845.48;130149;1270;106903;-74
2022/01/15 02:13:49;;;;;;;19.30;4.10;;;;;;;0.29;81.64;100846.20;130268;1269;107150;-72
2022/01/15 02:16:54;;;;;;;20.40;4.40;;;;;;;0.26;81.67;100847.91;130182;1270;108975;-73
2022/01/15 02:20:22;;;;;;;17.90;3.60;;;;;;;0.29;81.43;100846.90;130357;1270;108856;-74
2022/01/15 02:23:34;;;;;;;14.10;3.50;;;;;;;0.32;81.48;100851.32;130238;1271;107024;-76
2022/01/15 02:26:40;;;;;;;14.60;4.20;;;;;;;0.33;81.50;100850.73;130169;1270;108885;-75
2022/01/15 02:29:45;;;;;;;14.90;5.00;;;;;;;0.35;81.37;100854.47;130272;1271;108915;-73
2022/01/15 02:32:51;;;;;;;17.30;5.00;;;;;;;0.31;81.63;100857.66;130142;1270;108777;-74
2022/01/15 02:35:57;;;;;;;21.60;4.90;;;;;;;0.25;81.67;100856.20;130174;1270;108770;-74
2022/01/15 02:39:03;;;;;;;13.90;3.80;;;;;;;0.20;81.61;100852.05;130240;1270;108684;-72
2022/01/15 02:42:10;;;;;;;11.50;3.30;;;;;;;0.18;81.80;100852.82;130192;1270;108821;-74
2022/01/15 02:45:21;;;;;;;18.20;3.90;;;;;;;0.21;81.78;100852.18;130158;1271;108873;-74
2022/01/15 02:48:29;;;;;;;17.10;5.50;;;;;;;0.22;81.75;100849.17;130140;1270;110158;-75
2022/01/15 02:51:36;;;;;;;17.60;3.90;;;;;;;0.21;81.59;100852.18;130155;1270;108792;-75
2022/01/15 02:54:44;;;;;;;13.30;3.50;;;;;;;0.16;81.58;100854.30;130264;1271;108666;-75
2022/01/15 02:57:50;;;;;;;12.40;3.80;;;;;;;0.13;81.60;100849.92;130242;1269;109001;-74
2022/01/15 03:00:55;;;;;;;15.30;4.20;;;;;;;0.08;81.71;100848.44;130182;1269;108593;-75
2022/01/15 03:04:01;;;;;;;14.60;3.30;;;;;;;-0.00;81.58;100844.59;130214;1270;108884;-76
2022/01/15 03:07:07;;;;;;;12.70;3.30;;;;;;;0.00;81.78;100848.95;130285;1270;106855;-74
2022/01/15 03:10:13;;;;;;;10.70;3.30;;;;;;;0.01;81.76;100855.77;130147;1270;108552;-73
2022/01/15 03:13:19;;;;;;;12.60;3.60;;;;;;;-0.00;81.59;100857.20;130218;1270;108718;-78
2022/01/15 03:16:25;;;;;;;13.60;3.10;;;;;;;-0.01;81.54;100849.17;130247;1270;108679;-78
2022/01/15 03:19:30;;;;;;;13.30;4.40;;;;;;;-0.02;81.59;100845.89;130267;1270;108829;-78
2022/01/15 03:22:35;;;;;;;15.50;3.40;;;;;;;-0.05;81.66;100843.59;130183;1270;108806;-78
2022/01/15 03:25:41;;;;;;;13.90;4.10;;;;;;;-0.05;81.48;100843.41;130267;1270;108838;-76
2022/01/15 03:28:46;;;;;;;14.40;3.90;;;;;;;-0.04;81.67;100846.54;130211;1270;107495;-75
2022/01/15 03:31:52;;;;;;;14.50;3.20;;;;;;;-0.03;81.61;100851.18;130172;1270;108747;-75
2022/01/15 03:34:57;;;;;;;16.00;3.60;;;;;;;-0.05;81.76;100855.63;130126;1270;108818;-75
2022/01/15 03:38:03;;;;;;;12.20;3.10;;;;;;;-0.09;81.62;100852.16;130218;1269;108641;-77
2022/01/15 03:41:08;;;;;;;14.90;3.60;;;;;;;-0.10;81.64;100862.17;130094;1269;108693;-75
2022/01/15 03:44:14;;;;;;;17.30;3.70;;;;;;;-0.14;81.62;100866.56;130030;1270;108845;-76
2022/01/15 03:47:19;;;;;;;13.60;3.30;;;;;;;-0.16;81.69;100872.27;130115;1270;108868;-76
2022/01/15 03:50:25;;;;;;;11.90;3.90;;;;;;;-0.19;81.64;100870.63;130236;1270;108930;-75
2022/01/15 03:53:31;;;;;;;12.40;3.00;;;;;;;-0.16;81.79;100872.96;130199;1270;108684;-76
2022/01/15 03:56:37;;;;;;;12.60;3.70;;;;;;;-0.13;81.69;100863.20;130188;1269;108505;-76
2022/01/15 03:59:42;;;;;;;15.70;3.20;;;;;;;-0.09;81.42;100866.16;130301;1270;108906;-76
2022/01/15 04:02:48;;;;;;;13.10;3.00;;;;;;;-0.11;81.29;100869.21;130222;1270;108870;-76
2022/01/15 04:05:53;;;;;;;15.40;3.60;;;;;;;-0.17;81.45;100866.52;130253;1270;108758;-75
2022/01/15 04:08:59;;;;;;;19.50;5.40;;;;;;;-0.21;81.44;100861.61;130162;1269;108837;-75
2022/01/15 04:12:05;;;;;;;12.50;3.50;;;;;;;-0.20;81.51;100863.67;130234;1270;108782;-76
2022/01/15 04:15:13;;;;;;;12.50;3.40;;;;;;;-0.19;81.64;100870.45;130006;1269;108590;-76
2022/01/15 04:18:19;;;;;;;13.90;4.00;;;;;;;-0.18;81.39;100870.95;130224;1270;108797;-76
2022/01/15 04:21:24;;;;;;;12.80;3.30;;;;;;;-0.15;81.52;100886.00;130181;1270;108892;-75
2022/01/15 04:24:30;;;;;;;14.00;3.30;;;;;;;-0.15;81.26;100888.11;130159;1271;106702;-76
2022/01/15 04:27:37;;;;;;;16.60;3.80;;;;;;;-0.16;81.37;100893.92;130164;1271;108662;-75
2022/01/15 04:30:47;;;;;;;11.90;3.30;;;;;;;-0.20;81.25;100891.46;129939;1270;107402;-76
2022/01/15 04:33:52;;;;;;;13.10;3.20;;;;;;;-0.18;81.41;100891.23;130233;1270;108595;-76
2022/01/15 04:37:05;;;;;;;14.50;4.10;;;;;;;-0.20;81.28;100898.83;130235;1269;108811;-73
2022/01/15 04:40:13;;;;;;;11.70;3.30;;;;;;;-0.17;81.31;100904.49;130161;1270;109522;-76
2022/01/15 04:43:18;;;;;;;10.60;3.00;;;;;;;-0.19;81.29;100918.21;130212;1270;108208;-75
2022/01/15 04:46:23;;;;;;;14.70;3.70;;;;;;;-0.25;81.50;100911.80;130193;1269;108861;-76
2022/01/15 04:49:29;;;;;;;15.10;3.60;;;;;;;-0.28;81.55;100921.23;130143;1269;108925;-77
2022/01/15 04:52:36;;;;;;;12.70;3.20;;;;;;;-0.35;81.55;100921.67;130188;1270;109217;-76
2022/01/15 04:55:42;;;;;;;10.30;2.90;;;;;;;-0.38;81.64;100924.27;130252;1270;108783;-75
2022/01/15 04:58:47;;;;;;;10.10;3.00;;;;;;;-0.38;81.74;100929.16;130144;1271;108952;-75
2022/01/15 05:01:53;;;;;;;16.60;4.10;;;;;;;-0.36;81.86;100916.33;130190;1270;108969;-76
2022/01/15 05:04:58;;;;;;;12.20;3.40;;;;;;;-0.35;81.86;100915.77;130264;1270;107229;-77
2022/01/15 05:08:05;;;;;;;13.90;3.90;;;;;;;-0.36;81.90;100918.77;130241;1270;108897;-76
2022/01/15 05:11:15;;;;;;;16.20;4.50;;;;;;;-0.41;81.76;100921.08;130219;1270;108525;-76
2022/01/15 05:14:20;;;;;;;12.30;3.10;;;;;;;-0.47;81.83;100929.54;130298;1269;108816;-76
2022/01/15 05:17:26;;;;;;;15.10;3.00;;;;;;;-0.48;82.18;100937.10;130244;1269;108764;-74
2022/01/15 05:20:32;;;;;;;10.70;3.20;;;;;;;-0.47;82.35;100940.04;130206;1270;108647;-74
2022/01/15 05:23:37;;;;;;;11.60;3.50;;;;;;;-0.47;82.19;100946.66;130113;1270;108543;-75
2022/01/15 05:26:43;;;;;;;19.60;4.00;;;;;;;-0.45;82.42;100943.60;130181;1270;109193;-74
2022/01/15 05:29:49;;;;;;;17.80;4.40;;;;;;;-0.49;82.63;100938.04;130242;1270;107716;-75
2022/01/15 05:32:54;;;;;;;14.00;3.50;;;;;;;-0.56;83.02;100944.63;130173;1270;108795;-75
2022/01/15 05:35:59;;;;;;;14.10;3.80;;;;;;;-0.59;82.88;100945.63;130204;1270;108687;-73
2022/01/15 05:39:05;;;;;;;17.10;3.90;;;;;;;-0.60;82.88;100951.92;130147;1270;108736;-77
2022/01/15 05:42:11;;;;;;;13.30;3.50;;;;;;;-0.59;82.94;100947.19;130142;1269;108713;-74
2022/01/15 05:45:17;;;;;;;17.80;3.50;;;;;;;-0.55;82.87;100951.04;130175;1269;108762;-73
2022/01/15 05:48:22;;;;;;;15.10;4.20;;;;;;;-0.59;83.00;100958.89;130176;1270;108817;-75
2022/01/15 05:51:30;;;;;;;17.80;4.30;;;;;;;-0.65;83.39;100957.23;130232;1270;108878;-76
2022/01/15 05:54:36;;;;;;;13.40;3.40;;;;;;;-0.71;83.50;100952.75;130247;1270;108785;-76
2022/01/15 05:57:42;;;;;;;17.30;4.70;;;;;;;-0.69;83.51;100955.30;130171;1270;109122;-76
2022/01/15 06:00:47;;;;;;;13.00;4.30;;;;;;;-0.66;83.58;100953.61;130228;1270;108856;-77
2022/01/15 06:03:53;;;;;;;11.90;3.70;;;;;;;-0.65;83.38;100959.66;130209;1270;107718;-77
2022/01/15 06:06:59;;;;;;;17.30;4.10;;;;;;;-0.69;83.47;100958.61;130270;1270;108659;-79
2022/01/15 06:10:05;;;;;;;55.70;16.00;;;;;;;-0.72;83.51;100965.38;130177;1270;109227;-77
2022/01/15 06:13:11;;;;;;;106.80;36.60;;;;;;;-0.69;83.46;100972.41;130155;1269;108627;-81
2022/01/15 06:16:17;;;;;;;17.50;5.40;;;;;;;-0.62;83.30;100980.52;130191;1270;108801;-80
2022/01/15 06:19:22;;;;;;;100.60;39.70;;;;;;;-0.58;83.34;100972.13;130197;1270;106976;-74
2022/01/15 06:22:28;;;;;;;110.50;72.90;;;;;;;-0.59;83.28;100969.19;130050;1270;109097;-74
2022/01/15 06:25:33;;;;;;;33.40;12.70;;;;;;;-0.60;83.21;100978.70;130070;1271;108725;-77
2022/01/15 06:28:39;;;;;;;29.50;11.50;;;;;;;-0.62;83.31;100981.37;130127;1269;110188;-76
2022/01/15 06:31:44;;;;;;;14.80;4.80;;;;;;;-0.64;83.36;100985.11;130139;1269;108703;-75
2022/01/15 06:34:49;;;;;;;14.70;4.20;;;;;;;-0.64;83.52;100984.77;130190;1269;108829;-74
2022/01/15 06:37:55;;;;;;;16.10;4.80;;;;;;;-0.61;83.67;100986.05;130194;1270;109436;-74
2022/01/15 06:41:00;;;;;;;19.70;5.10;;;;;;;-0.54;83.43;100987.20;130306;1270;108838;-75
2022/01/15 06:44:06;;;;;;;19.10;7.00;;;;;;;-0.50;83.20;100988.91;130259;1270;108818;-75
2022/01/15 06:47:11;;;;;;;17.50;4.40;;;;;;;-0.47;83.25;100987.59;130120;1270;108898;-74
2022/01/15 06:50:17;;;;;;;16.80;5.10;;;;;;;-0.52;83.20;100999.68;130207;1270;108832;-75
2022/01/15 06:53:23;;;;;;;22.70;7.30;;;;;;;-0.56;83.40;101000.01;130222;1270;107389;-76
2022/01/15 06:56:28;;;;;;;21.90;8.40;;;;;;;-0.59;83.44;100997.50;130174;1270;108754;-73
2022/01/15 06:59:34;;;;;;;16.50;5.10;;;;;;;-0.57;83.29;100996.02;130191;1270;108999;-73
2022/01/15 07:02:40;;;;;;;17.80;5.20;;;;;;;-0.50;83.47;100991.20;130227;1269;108563;-74
2022/01/15 07:05:45;;;;;;;19.30;5.00;;;;;;;-0.45;83.28;100994.47;130327;1269;108830;-77
2022/01/15 07:08:51;;;;;;;16.60;5.50;;;;;;;-0.43;83.47;100989.52;130249;1270;108851;-74
2022/01/15 07:11:56;;;;;;;21.80;8.00;;;;;;;-0.41;83.37;100987.32;130227;1270;108792;-75
2022/01/15 07:15:01;;;;;;;21.50;8.40;;;;;;;-0.41;83.44;100992.02;130095;1270;108671;-77
2022/01/15 07:18:07;;;;;;;28.10;10.20;;;;;;;-0.48;83.31;100999.69;130075;1270;249465;-77
2022/01/15 07:21:12;;;;;;;39.90;19.70;;;;;;;-0.53;83.56;100998.67;130203;1270;108764;-73
2022/01/15 07:24:22;;;;;;;27.70;11.40;;;;;;;-0.53;83.60;100996.73;130292;1270;109033;-77
2022/01/15 07:27:27;;;;;;;22.00;7.20;;;;;;;-0.47;83.65;100996.34;130172;1269;109002;-77
2022/01/15 07:30:33;;;;;;;30.30;12.60;;;;;;;-0.46;83.83;101002.55;130351;1270;108854;-78
2022/01/15 07:33:38;;;;;;;36.40;16.90;;;;;;;-0.40;83.63;101004.08;130307;1270;108760;-77
2022/01/15 07:36:47;;;;;;;21.70;7.60;;;;;;;-0.34;83.54;101004.48;130403;1270;108970;-78
2022/01/15 07:39:53;;;;;;;40.10;18.90;;;;;;;-0.33;83.41;101007.79;130285;1271;107767;-77
2022/01/15 07:43:00;;;;;;;40.50;19.90;;;;;;;-0.32;83.52;101007.57;130219;1270;108782;-78
2022/01/15 07:46:06;;;;;;;33.70;12.90;;;;;;;-0.29;83.51;101006.94;130196;1268;108758;-74
2022/01/15 07:49:12;;;;;;;19.60;6.00;;;;;;;-0.24;83.53;101013.36;130271;1270;108792;-75
2022/01/15 07:52:23;;;;;;;20.90;6.90;;;;;;;-0.19;83.54;101012.46;130233;1270;108745;-76
2022/01/15 07:55:29;;;;;;;22.90;7.60;;;;;;;-0.18;83.73;101016.59;130226;1270;109221;-78
2022/01/15 07:58:35;;;;;;;30.30;15.10;;;;;;;-0.11;83.53;101012.80;130246;1269;108837;-76
2022/01/15 08:01:40;;;;;;;21.30;7.60;;;;;;;-0.09;83.70;101013.77;130267;1271;107102;-77
2022/01/15 08:04:46;;;;;;;31.20;9.60;;;;;;;-0.11;83.46;101007.90;130294;1271;109109;-75
2022/01/15 08:07:51;;;;;;;21.10;6.20;;;;;;;-0.06;83.57;101018.67;130176;1269;108927;-74
2022/01/15 08:10:57;;;;;;;28.40;10.70;;;;;;;-0.02;83.81;101013.10;130374;1271;106897;-74
2022/01/15 08:14:03;;;;;;;24.80;9.60;;;;;;;0.02;83.44;101016.64;130275;1269;109051;-74
2022/01/15 08:17:08;;;;;;;24.70;9.10;;;;;;;0.05;83.59;101014.73;130208;1269;108594;-74
2022/01/15 08:20:15;;;;;;;21.70;8.00;;;;;;;0.00;83.45;101007.23;130176;1270;108832;-76
2022/01/15 08:23:20;;;;;;;193.30;74.30;;;;;;;-0.04;83.65;101008.85;130255;1270;108680;-74
2022/01/15 08:26:26;;;;;;;17.10;6.70;;;;;;;0.05;83.78;101015.42;130293;1271;107387;-74
2022/01/15 08:29:31;;;;;;;72.80;36.90;;;;;;;0.15;83.30;101015.34;130245;1270;108761;-73
2022/01/15 08:32:37;;;;;;;24.40;7.90;;;;;;;0.28;83.45;101015.80;130234;1270;108972;-74
2022/01/15 08:35:42;;;;;;;56.70;26.10;;;;;;;0.37;82.99;101014.02;130260;1271;108931;-74
2022/01/15 08:38:49;;;;;;;18.50;7.20;;;;;;;0.34;82.78;101017.81;130246;1271;108983;-75
2022/01/15 08:41:54;;;;;;;18.20;6.40;;;;;;;0.27;82.84;101021.30;130234;1269;108857;-74
2022/01/15 08:44:59;;;;;;;14.20;5.30;;;;;;;0.29;83.13;101028.21;130242;1270;107789;-76
2022/01/15 08:48:07;;;;;;;20.30;6.70;;;;;;;0.31;82.96;101039.27;130292;1271;108870;-81
2022/01/15 08:51:12;;;;;;;19.20;7.30;;;;;;;0.39;82.94;101046.50;130200;1271;106738;-76
2022/01/15 08:54:18;;;;;;;17.10;6.10;;;;;;;0.45;82.43;101046.56;130197;1271;108882;-75
2022/01/15 08:57:24;;;;;;;31.70;15.30;;;;;;;0.46;82.52;101049.31;130193;1271;108722;-78
2022/01/15 09:00:30;;;;;;;22.70;7.80;;;;;;;0.53;82.66;101048.12;129992;1269;108654;-79
2022/01/15 09:03:35;;;;;;;14.10;5.50;;;;;;;0.58;82.17;101040.69;130212;1271;108920;-75
2022/01/15 09:06:43;;;;;;;21.90;6.80;;;;;;;0.59;82.20;101036.12;130172;1270;108538;-74
2022/01/15 09:09:49;;;;;;;16.00;5.80;;;;;;;0.59;82.26;101033.16;130210;1269;108829;-75
2022/01/15 09:12:54;;;;;;;20.40;6.90;;;;;;;0.61;82.51;101033.24;130191;1269;108658;-76
2022/01/15 09:16:01;;;;;;;29.60;11.40;;;;;;;0.61;82.35;101034.99;130206;1269;107770;-77
2022/01/15 09:19:07;;;;;;;20.00;6.50;;;;;;;0.62;82.32;101040.89;130269;1270;108706;-73
2022/01/15 09:22:13;;;;;;;28.00;12.50;;;;;;;0.71;82.19;101039.63;130318;1270;106737;-76
2022/01/15 09:25:19;;;;;;;20.40;7.60;;;;;;;0.80;82.11;101038.17;130295;1270;107261;-76
2022/01/15 09:31:47;;;;;;;19.80;8.50;;;;;;;0.86;82.06;101040.67;130188;1270;106606;-74
2022/01/15 09:34:53;;;;;;;18.70;7.40;;;;;;;0.89;81.80;101045.08;130211;1269;108779;-78
2022/01/15 09:38:00;;;;;;;26.00;12.50;;;;;;;0.93;81.54;101054.70;130087;1270;108798;-80
2022/01/15 09:41:06;;;;;;;20.80;9.20;;;;;;;0.92;81.83;101056.85;130217;1270;108629;-76
2022/01/15 09:44:12;;;;;;;22.10;10.20;;;;;;;1.02;81.44;101054.10;130110;1270;108754;-81
2022/01/15 09:47:20;;;;;;;24.40;8.90;;;;;;;1.04;81.20;101056.65;130248;1271;108737;-76
2022/01/15 09:50:29;;;;;;;29.70;13.00;;;;;;;1.11;81.62;101058.95;130020;1271;108784;-75
2022/01/15 09:53:36;;;;;;;29.80;8.90;;;;;;;1.18;81.43;101060.17;130141;1270;106769;-76
2022/01/15 09:56:42;;;;;;;23.40;10.00;;;;;;;1.21;80.90;101058.49;130189;1269;108574;-77
2022/01/15 09:59:47;;;;;;;32.00;13.50;;;;;;;1.19;80.91;101061.56;130211;1270;108729;-75
2022/01/15 10:02:54;;;;;;;35.60;12.70;;;;;;;1.23;81.00;101061.20;130075;1270;108789;-74
2022/01/15 10:06:05;;;;;;;21.80;8.70;;;;;;;1.31;80.46;101063.41;130271;1270;109270;-77
2022/01/15 10:09:12;;;;;;;24.70;8.70;;;;;;;1.32;80.18;101063.20;130316;1270;108802;-72
2022/01/15 10:12:29;;;;;;;20.60;8.40;;;;;;;1.38;80.69;101069.05;130214;1270;107867;-74
2022/01/15 10:15:35;;;;;;;21.10;7.10;;;;;;;1.50;80.59;101069.51;130135;1270;108571;-74
2022/01/15 10:18:44;;;;;;;49.70;22.00;;;;;;;1.52;80.46;101067.51;130301;1270;108840;-75
2022/01/15 10:22:07;;;;;;;21.20;7.40;;;;;;;1.64;79.74;101067.77;130504;1270;107232;-76
2022/01/15 10:25:19;;;;;;;22.10;7.00;;;;;;;1.73;79.87;101069.09;130299;1270;108877;-83
2022/01/15 10:28:44;;;;;;;21.70;9.30;;;;;;;1.83;80.56;101074.59;130277;1270;109964;-76
2022/01/15 10:31:49;;;;;;;18.30;7.90;;;;;;;1.98;79.49;101077.50;130306;1270;108904;-78
2022/01/15 10:34:56;;;;;;;18.70;7.10;;;;;;;2.02;79.54;101079.23;130408;1270;108853;-80
2022/01/15 10:38:04;;;;;;;16.70;7.00;;;;;;;2.09;80.40;101081.35;130241;1271;107798;-78
2022/01/15 10:41:29;;;;;;;22.00;9.20;;;;;;;2.18;80.13;101082.77;130275;1270;108996;-76
2022/01/15 10:44:37;;;;;;;18.30;7.60;;;;;;;2.30;79.22;101083.23;130097;1269;108768;-77
2022/01/15 10:47:47;;;;;;;20.10;8.00;;;;;;;2.38;79.30;101078.41;130166;1269;108684;-76
2022/01/15 10:51:00;;;;;;;21.60;7.70;;;;;;;2.43;78.94;101073.46;130128;1269;107431;-76
2022/01/15 10:54:06;;;;;;;20.90;8.10;;;;;;;2.38;78.19;101071.23;130247;1270;108886;-76
2022/01/15 10:57:12;;;;;;;20.20;8.20;;;;;;;2.34;77.99;101066.51;130139;1270;108944;-76
2022/01/15 11:00:25;;;;;;;21.30;8.00;;;;;;;2.15;77.44;101062.25;130181;1270;108787;-75
2022/01/15 11:03:40;;;;;;;20.50;8.10;;;;;;;2.06;78.60;101061.48;130156;1271;108683;-76
2022/01/15 11:06:46;;;;;;;24.90;7.80;;;;;;;2.02;78.99;101062.04;130171;1270;108589;-75
2022/01/15 11:09:53;;;;;;;21.10;8.20;;;;;;;1.99;78.42;101070.42;130162;1270;108866;-75
2022/01/15 11:13:01;;;;;;;36.80;18.70;;;;;;;1.99;78.10;101075.34;130150;1269;108644;-76
2022/01/15 11:16:12;;;;;;;21.50;9.60;;;;;;;1.92;78.38;101068.13;130221;1270;108597;-75
2022/01/15 11:19:18;;;;;;;104.50;47.30;;;;;;;1.92;78.47;101060.79;130194;1271;108515;-75
2022/01/15 11:22:23;;;;;;;25.20;10.30;;;;;;;1.92;78.57;101057.81;130211;1270;109007;-74
2022/01/15 11:25:30;;;;;;;21.90;7.70;;;;;;;1.85;78.06;101070.24;130242;1269;108890;-74
2022/01/15 11:28:35;;;;;;;44.50;21.50;;;;;;;1.86;78.70;101059.14;130171;1270;108928;-73
2022/01/15 11:31:41;;;;;;;41.30;21.10;;;;;;;1.96;78.68;101056.90;130165;1269;108865;-74
2022/01/15 11:38:44;;;;;;;18.90;9.80;;;;;;;2.13;78.83;101061.65;125696;1310;636361;-74
2022/01/15 11:41:53;;;;;;;29.40;11.70;;;;;;;2.13;78.12;101073.59;129101;1281;108887;-73
2022/01/15 11:44:59;;;;;;;21.90;8.30;;;;;;;1.96;77.24;101074.61;129171;1281;108864;-76
2022/01/15 11:48:21;;;;;;;21.30;8.20;;;;;;;1.83;77.38;101073.67;129192;1281;109284;-74
2022/01/15 11:51:28;;;;;;;;;;;;;;;1.80;77.81;101072.77;128645;1271;1890459;-77
2022/01/15 11:54:35;;;;;;;29.70;11.10;;;;;;;1.85;77.63;101078.67;130103;1271;109401;-77
2022/01/15 11:57:55;;;;;;;23.80;10.00;;;;;;;1.88;77.71;101079.59;129875;1271;108712;-78
2022/01/15 12:01:00;;;;;;;24.80;9.80;;;;;;;1.85;77.16;101080.05;129989;1271;108887;-77
2022/01/15 12:04:26;;;;;;;21.80;8.30;;;;;;;1.85;77.36;101084.29;130033;1271;107204;-75
2022/01/15 12:07:32;;;;;;;22.50;9.00;;;;;;;1.96;77.75;101084.42;130292;1271;108723;-75
2022/01/15 12:10:56;;;;;;;22.70;7.90;;;;;;;2.01;77.59;101084.02;130073;1271;109110;-74
2022/01/15 12:14:01;;;;;;;19.20;7.60;;;;;;;1.99;77.34;101072.56;130436;1268;108601;-78
2022/01/15 12:17:28;;;;;;;21.80;7.60;;;;;;;1.88;77.22;101072.02;130393;1267;109381;-76
2022/01/15 12:20:36;;;;;;;21.90;7.80;;;;;;;1.78;77.42;101072.70;130335;1268;108745;-73
2022/01/15 12:23:42;;;;;;;18.60;8.30;;;;;;;1.72;77.92;101070.92;130654;1268;108757;-78
2022/01/15 12:30:23;;;;;;;23.10;9.70;;;;;;;1.79;78.01;101069.13;126527;1303;635964;-77
2022/01/15 12:33:29;;;;;;;24.40;10.60;;;;;;;1.77;78.02;101066.25;129304;1281;107821;-76
2022/01/15 12:36:49;;;;;;;24.20;9.20;;;;;;;1.78;77.92;101070.45;129232;1279;108233;-77
2022/01/15 12:39:54;;;;;;;26.20;13.90;;;;;;;1.78;78.22;101069.02;129260;1279;108742;-76
2022/01/15 12:43:02;;;;;;;22.00;8.30;;;;;;;1.87;78.26;101070.31;129467;1274;154288;-75
2022/01/15 12:46:11;;;;;;;20.40;9.20;;;;;;;1.92;78.09;101076.54;129772;1274;108957;-74
2022/01/15 12:49:17;;;;;;;26.90;10.30;;;;;;;1.93;78.10;101079.50;129886;1274;108874;-75
2022/01/15 12:52:28;;;;;;;21.70;10.00;;;;;;;1.95;77.88;101084.32;129825;1274;108729;-78
2022/01/15 12:55:36;;;;;;;21.00;9.10;;;;;;;1.98;78.34;101078.02;129783;1274;108654;-78
2022/01/15 12:58:43;;;;;;;21.50;10.00;;;;;;;2.01;78.29;101087.35;129783;1274;108830;-76
2022/01/15 13:01:51;;;;;;;33.40;14.20;;;;;;;1.97;78.42;101087.38;129777;1276;108728;-74
2022/01/15 13:04:56;;;;;;;27.00;11.40;;;;;;;1.90;78.17;101086.00;129785;1274;108873;-74
2022/01/15 13:08:04;;;;;;;23.90;10.10;;;;;;;1.89;78.62;101085.50;129890;1274;108737;-75
2022/01/15 13:11:19;;;;;;;25.40;9.50;;;;;;;1.89;78.30;101093.55;129636;1274;109022;-75
2022/01/15 13:14:35;;;;;;;21.70;8.90;;;;;;;1.84;78.28;101098.37;129730;1274;108544;-76
2022/01/15 13:17:44;;;;;;;27.50;11.60;;;;;;;1.85;78.33;101102.55;129650;1274;109518;-77
2022/01/15 13:20:53;;;;;;;19.80;8.80;;;;;;;1.85;78.44;101102.34;129792;1274;108770;-77
2022/01/15 13:24:03;;;;;;;26.00;10.20;;;;;;;1.83;78.53;101104.42;130046;1274;108866;-75
2022/01/15 13:27:08;;;;;;;19.80;8.90;;;;;;;1.78;78.29;101106.55;129871;1274;108892;-76
2022/01/15 13:30:14;;;;;;;25.20;9.10;;;;;;;1.74;78.17;101108.52;129743;1274;108810;-75
2022/01/15 13:33:20;;;;;;;25.50;9.10;;;;;;;1.72;78.37;101103.33;129677;1274;108841;-77
2022/01/15 13:36:27;;;;;;;18.90;8.70;;;;;;;1.72;78.25;101103.50;129702;1274;109053;-76
2022/01/15 13:39:34;;;;;;;18.90;8.70;;;;;;;1.67;78.31;101108.84;129890;1273;108930;-77
2022/01/15 13:42:40;;;;;;;20.80;10.10;;;;;;;1.66;78.37;101105.60;129842;1277;108804;-75
2022/01/15 13:45:45;;;;;;;34.30;16.60;;;;;;;1.63;78.31;101108.52;129981;1277;107878;-75
2022/01/15 13:48:54;;;;;;;21.80;9.60;;;;;;;1.66;78.49;101118.38;129799;1277;107776;-77
2022/01/15 13:55:30;;;;;;;35.00;15.70;;;;;;;1.65;77.92;101115.98;129819;1276;107103;-78
2022/01/15 13:58:35;;;;;;;29.30;12.60;;;;;;;1.69;78.10;101108.79;129831;1277;109010;-77
2022/01/15 14:01:49;;;;;;;28.20;14.60;;;;;;;1.73;77.97;101110.14;129865;1277;108848;-75
2022/01/15 14:05:11;;;;;;;24.90;12.50;;;;;;;1.68;77.68;101120.37;129623;1277;108997;-78
2022/01/15 14:08:17;;;;;;;27.40;11.60;;;;;;;1.64;78.03;101122.02;129603;1276;108810;-76
2022/01/15 14:11:22;;;;;;;27.20;12.10;;;;;;;1.56;78.16;101122.70;129521;1277;108724;-80
2022/01/15 14:14:28;;;;;;;32.50;15.70;;;;;;;1.45;78.18;101128.13;129680;1277;108840;-79
2022/01/15 14:17:41;;;;;;;27.40;13.30;;;;;;;1.39;78.36;101124.03;129574;1277;109216;-80
2022/01/15 14:21:05;;;;;;;30.80;15.20;;;;;;;1.39;78.63;101128.77;129588;1276;108811;-78
2022/01/15 14:24:20;;;;;;;31.20;14.50;;;;;;;1.40;78.61;101128.74;129590;1277;108523;-76
2022/01/15 14:27:26;;;;;;;31.00;13.60;;;;;;;1.34;78.50;101133.20;129908;1276;108674;-72